Time;durP1;ratioP1;P1;durP2;ratioP2;P2;SDS_P1;SDS_P2;PMS_P1;PMS_P2;Temp;Humidity;BMP_temperature;BMP_pressure;BME280_temperature;BME280_humidity;BME280_pressure;Samples;Min_cycle;Max_cycle;Signal;HPM_P1;HPM_P2
2021/07/05 00:01:32;;;;;;;9.30;8.15;;;18.10;87.30;;;;;;4952010;28;20655;-87
2021/07/05 00:03:58;;;;;;;8.98;7.90;;;18.00;87.20;;;;;;4952030;28;20182;-87
2021/07/05 00:06:24;;;;;;;9.98;7.80;;;18.00;87.30;;;;;;4966813;28;20186;-87
2021/07/05 00:08:50;;;;;;;8.10;7.30;;;18.00;87.20;;;;;;4966789;28;20207;-88
2021/07/05 00:11:15;;;;;;;11.25;7.55;;;18.10;87.10;;;;;;4966771;28;20183;-87
2021/07/05 00:13:42;;;;;;;9.15;7.82;;;18.00;87.60;;;;;;4966665;28;20213;-87
2021/07/05 00:16:11;;;;;;;14.52;7.82;;;17.70;88.50;;;;;;4950854;28;20741;-88
2021/07/05 00:18:36;;;;;;;10.32;9.25;;;17.70;88.90;;;;;;4950496;28;20208;-87
2021/07/05 00:21:02;;;;;;;17.77;11.95;;;17.70;88.90;;;;;;4968870;28;20164;-87
2021/07/05 00:23:28;;;;;;;11.52;8.95;;;17.80;88.60;;;;;;4955157;28;20179;-87
2021/07/05 00:25:54;;;;;;;11.18;9.68;;;17.80;88.10;;;;;;4955129;28;20172;-87
2021/07/05 00:28:19;;;;;;;8.45;7.53;;;17.90;87.80;;;;;;4969824;28;20183;-87
2021/07/05 00:30:45;;;;;;;16.15;7.05;;;17.90;87.90;;;;;;4970008;28;20180;-87
2021/07/05 00:33:11;;;;;;;10.10;7.22;;;17.90;87.80;;;;;;4953840;28;20211;-88
2021/07/05 00:35:37;;;;;;;10.80;6.63;;;18.00;87.70;;;;;;4954904;28;20182;-87
2021/07/05 00:38:03;;;;;;;7.47;6.82;;;18.00;87.50;;;;;;4953636;28;20172;-87
2021/07/05 00:40:29;;;;;;;12.52;7.63;;;18.00;87.30;;;;;;4970080;28;20660;-88
2021/07/05 00:42:56;;;;;;;8.07;7.18;;;18.00;87.30;;;;;;4969763;28;20190;-87
2021/07/05 00:45:23;;;;;;;8.25;6.80;;;18.00;87.20;;;;;;4953687;28;20553;-88
2021/07/05 00:47:49;;;;;;;9.18;7.80;;;17.90;87.50;;;;;;4969772;28;20180;-88
2021/07/05 00:50:16;;;;;;;10.98;8.18;;;17.80;88.20;;;;;;4953488;28;20205;-87
2021/07/05 00:52:44;;;;;;;8.80;7.18;;;17.70;88.60;;;;;;4954656;28;20619;-87
2021/07/05 00:55:12;;;;;;;8.95;7.53;;;17.70;89.10;;;;;;4969556;28;20198;-87
2021/07/05 00:57:38;;;;;;;11.20;8.18;;;17.70;89.30;;;;;;4954596;28;20669;-88
2021/07/05 01:00:08;;;;;;;7.68;6.60;;;17.70;89.40;;;;;;4954571;28;20199;-87
2021/07/05 01:02:33;;;;;;;11.00;7.30;;;17.80;89.00;;;;;;4969357;28;20183;-87
2021/07/05 01:04:59;;;;;;;11.00;7.68;;;17.80;88.90;;;;;;4969655;28;20178;-88
2021/07/05 01:07:25;;;;;;;8.60;7.70;;;17.80;89.10;;;;;;4954781;28;20274;-87
2021/07/05 01:09:51;;;;;;;9.02;8.10;;;17.80;89.20;;;;;;4954390;29;20252;-88
2021/07/05 01:12:17;;;;;;;10.75;7.78;;;17.80;89.40;;;;;;4954365;28;20237;-88
2021/07/05 01:14:42;;;;;;;8.85;8.05;;;17.80;89.50;;;;;;4954348;28;20199;-88
2021/07/05 01:17:15;;;;;;;14.43;8.52;;;17.80;89.50;;;;;;4954368;28;20175;-88
2021/07/05 01:19:44;;;;;;;8.25;7.55;;;17.90;89.50;;;;;;4954180;28;20631;-88
2021/07/05 01:22:10;;;;;;;9.48;7.97;;;17.90;89.20;;;;;;4952972;28;20647;-88
2021/07/05 01:24:35;;;;;;;8.02;7.22;;;18.00;89.00;;;;;;4954232;28;20191;-88
2021/07/05 01:27:01;;;;;;;7.85;7.00;;;18.00;89.00;;;;;;4954254;28;20175;-87
2021/07/05 01:29:27;;;;;;;11.25;7.93;;;17.90;89.20;;;;;;4969309;28;20203;-88
2021/07/05 01:31:56;;;;;;;9.85;7.57;;;17.90;89.20;;;;;;4953159;28;20266;-88
2021/07/05 01:34:22;;;;;;;9.00;7.63;;;18.00;89.30;;;;;;4954117;28;20246;-88
2021/07/05 01:36:48;;;;;;;12.00;7.75;;;18.00;89.10;;;;;;4969405;28;20225;-87
2021/07/05 01:39:14;;;;;;;11.02;8.35;;;17.90;89.30;;;;;;4953983;28;20203;-87
2021/07/05 01:41:40;;;;;;;11.90;9.25;;;17.90;89.60;;;;;;4953956;28;20175;-87
2021/07/05 01:44:06;;;;;;;11.98;8.50;;;17.70;90.10;;;;;;4953960;28;20218;-87
2021/07/05 01:46:31;;;;;;;11.00;8.73;;;17.70;90.30;;;;;;4953967;28;20203;-87
2021/07/05 01:48:57;;;;;;;10.05;9.00;;;17.70;90.50;;;;;;4968923;28;20637;-87
2021/07/05 01:51:23;;;;;;;12.95;8.63;;;17.70;90.60;;;;;;4968673;28;20274;-87
2021/07/05 01:53:48;;;;;;;17.90;10.65;;;17.70;90.60;;;;;;4953776;28;20206;-87
2021/07/05 01:56:14;;;;;;;13.90;10.45;;;17.70;90.60;;;;;;4953741;28;20176;-88
2021/07/05 01:58:40;;;;;;;14.00;10.48;;;17.70;90.50;;;;;;4953622;28;20183;-87
2021/07/05 02:01:06;;;;;;;13.93;10.90;;;17.60;90.60;;;;;;4953675;28;20183;-87
2021/07/05 02:03:32;;;;;;;14.65;10.77;;;17.60;90.60;;;;;;4952469;28;20206;-87
2021/07/05 02:05:58;;;;;;;12.15;10.60;;;17.70;90.50;;;;;;4952439;28;20180;-88
2021/07/05 02:08:24;;;;;;;14.93;11.93;;;17.70;90.60;;;;;;4953823;28;20671;-87
2021/07/05 02:10:51;;;;;;;14.75;11.75;;;17.70;90.50;;;;;;4952356;29;20188;-87
2021/07/05 02:13:29;;;;;;;15.05;11.00;;;17.60;90.40;;;;;;4953404;29;20231;-87
2021/07/05 02:15:57;;;;;;;14.63;11.68;;;17.60;90.50;;;;;;4952378;29;20174;-87
2021/07/05 02:18:24;;;;;;;15.07;12.32;;;17.50;90.60;;;;;;4952065;28;20191;-87
2021/07/05 02:20:50;;;;;;;14.93;11.20;;;17.50;90.70;;;;;;4953504;28;20171;-87
2021/07/05 02:23:18;;;;;;;14.38;11.40;;;17.50;90.90;;;;;;4953375;28;20176;-87
2021/07/05 02:25:44;;;;;;;16.33;11.88;;;17.50;90.80;;;;;;4953299;28;20179;-87
2021/07/05 02:28:16;;;;;;;15.02;11.77;;;17.50;90.70;;;;;;4953399;28;20184;-87
2021/07/05 02:30:47;;;;;;;16.25;11.05;;;17.60;90.50;;;;;;4952068;29;20639;-87
2021/07/05 02:33:15;;;;;;;15.20;10.88;;;17.60;90.50;;;;;;4952064;29;20253;-87
2021/07/05 02:35:41;;;;;;;15.35;11.52;;;17.50;90.50;;;;;;4953241;28;20262;-87
2021/07/05 02:38:10;;;;;;;14.70;12.15;;;17.50;90.70;;;;;;4951846;29;20268;-87
2021/07/05 02:40:38;;;;;;;14.27;10.88;;;17.50;90.80;;;;;;4953393;28;20237;-87
2021/07/05 02:43:04;;;;;;;22.15;13.57;;;17.40;91.10;;;;;;4952943;28;20274;-87
2021/07/05 02:45:32;;;;;;;19.40;13.25;;;17.40;91.20;;;;;;4953088;28;20230;-87
2021/07/05 02:48:03;;;;;;;16.00;14.30;;;17.40;91.20;;;;;;4951678;28;20234;-87
2021/07/05 02:50:29;;;;;;;17.38;14.80;;;17.30;91.40;;;;;;4951786;29;20266;-87
2021/07/05 02:52:56;;;;;;;18.40;14.63;;;17.40;91.40;;;;;;4951710;28;20203;-87
2021/07/05 02:55:22;;;;;;;18.00;15.88;;;17.30;91.40;;;;;;4952907;28;20230;-87
2021/07/05 02:57:48;;;;;;;22.10;16.42;;;17.30;91.40;;;;;;4953129;28;20179;-87
2021/07/05 03:00:18;;;;;;;20.88;17.17;;;17.30;91.40;;;;;;4951613;28;20191;-87
2021/07/05 03:02:46;;;;;;;27.75;17.80;;;17.30;91.50;;;;;;4952795;28;20183;-87
2021/07/05 03:05:13;;;;;;;19.60;17.15;;;17.30;91.50;;;;;;4952763;28;20639;-87
2021/07/05 03:07:39;;;;;;;26.08;18.40;;;17.30;91.60;;;;;;4951610;29;20202;-87
2021/07/05 03:10:10;;;;;;;27.08;19.75;;;17.30;91.60;;;;;;4952694;28;20703;-87
2021/07/05 03:12:37;;;;;;;28.13;19.33;;;17.30;91.60;;;;;;4952672;28;20203;-87
2021/07/05 03:15:05;;;;;;;28.23;20.77;;;17.30;91.80;;;;;;4951506;29;20651;-87
2021/07/05 03:17:30;;;;;;;30.45;21.60;;;17.30;91.80;;;;;;4952458;28;20175;-87
2021/07/05 03:19:56;;;;;;;33.53;22.42;;;17.30;91.90;;;;;;4951305;28;20580;-87
2021/07/05 03:22:22;;;;;;;34.70;26.33;;;17.30;92.00;;;;;;4951340;28;20219;-87
2021/07/05 03:24:47;;;;;;;41.95;28.05;;;17.30;92.00;;;;;;4952456;28;20175;-87
2021/07/05 03:27:13;;;;;;;38.38;28.90;;;17.30;92.10;;;;;;4952438;28;20179;-87
2021/07/05 03:29:39;;;;;;;40.33;27.85;;;17.30;92.00;;;;;;4952385;28;20290;-88
2021/07/05 03:32:06;;;;;;;34.75;27.85;;;17.40;92.00;;;;;;4951145;28;20187;-89
2021/07/05 03:34:32;;;;;;;42.70;31.40;;;17.40;92.10;;;;;;4951192;28;20187;-89
2021/07/05 03:36:59;;;;;;;40.10;31.73;;;17.30;92.10;;;;;;4951106;29;20179;-89
2021/07/05 03:39:25;;;;;;;48.58;32.95;;;17.40;92.10;;;;;;4951099;29;20219;-89
2021/07/05 03:41:51;;;;;;;44.42;32.60;;;17.30;92.10;;;;;;4951176;28;20207;-89
2021/07/05 03:44:17;;;;;;;46.30;33.28;;;17.30;92.10;;;;;;4951086;28;20172;-89
2021/07/05 03:46:42;;;;;;;50.72;36.20;;;17.30;92.20;;;;;;4952495;28;20191;-89
2021/07/05 03:49:08;;;;;;;53.90;36.65;;;17.30;92.30;;;;;;4950866;29;20206;-89
2021/07/05 03:51:34;;;;;;;56.28;38.20;;;17.30;92.40;;;;;;4951016;28;20180;-89
2021/07/05 03:54:00;;;;;;;59.55;39.33;;;17.30;92.60;;;;;;4951517;28;20225;-89
2021/07/05 03:56:26;;;;;;;47.08;37.40;;;17.30;92.60;;;;;;4953704;29;20661;-90
2021/07/05 03:58:51;;;;;;;56.67;38.75;;;17.30;92.60;;;;;;4954372;28;20206;-90
2021/07/05 04:01:17;;;;;;;54.47;36.95;;;17.40;92.50;;;;;;4955423;28;20171;-89
2021/07/05 04:03:43;;;;;;;51.45;36.60;;;17.40;92.30;;;;;;4954591;29;20180;-90
2021/07/05 04:06:08;;;;;;;43.95;33.55;;;17.50;92.20;;;;;;4954313;28;20191;-90
2021/07/05 04:08:35;;;;;;;50.22;33.85;;;17.50;92.10;;;;;;4954290;29;20203;-89
2021/07/05 04:11:03;;;;;;;43.38;32.33;;;17.50;91.90;;;;;;4954319;28;20187;-89
2021/07/05 04:13:29;;;;;;;47.05;34.78;;;17.50;91.90;;;;;;4954241;28;20752;-89
2021/07/05 04:15:55;;;;;;;46.10;36.35;;;17.50;91.90;;;;;;4954244;29;20207;-89
2021/07/05 04:18:21;;;;;;;49.40;35.10;;;17.50;92.00;;;;;;4954275;29;20176;-89
2021/07/05 04:20:48;;;;;;;59.88;37.60;;;17.50;92.00;;;;;;4954136;29;20171;-89
2021/07/05 04:23:14;;;;;;;57.80;38.60;;;17.50;91.80;;;;;;4953908;29;20214;-89
2021/07/05 04:25:40;;;;;;;65.43;40.25;;;17.50;91.70;;;;;;4954574;28;20206;-89
2021/07/05 04:28:06;;;;;;;70.80;39.67;;;17.60;91.70;;;;;;4953926;28;20250;-89
2021/07/05 04:30:32;;;;;;;63.53;39.33;;;17.60;91.70;;;;;;4955093;28;20175;-89
2021/07/05 04:32:58;;;;;;;70.43;43.45;;;17.60;91.50;;;;;;4953826;28;20207;-89
2021/07/05 04:35:25;;;;;;;70.35;42.90;;;17.60;91.20;;;;;;4953838;29;20171;-89
2021/07/05 04:37:52;;;;;;;79.35;45.50;;;17.50;91.20;;;;;;4953771;29;20655;-88
2021/07/05 04:40:22;;;;;;;76.72;45.58;;;17.60;91.30;;;;;;4953706;29;20203;-88
2021/07/05 04:42:49;;;;;;;74.97;44.05;;;17.60;91.40;;;;;;4953744;29;20230;-89
2021/07/05 04:45:17;;;;;;;75.28;43.10;;;17.60;91.70;;;;;;4953639;28;20643;-88
2021/07/05 04:47:43;;;;;;;76.97;46.58;;;17.50;91.50;;;;;;4954505;29;20232;-88
2021/07/05 04:50:12;;;;;;;78.70;44.60;;;17.50;91.50;;;;;;4954679;28;20600;-88
2021/07/05 04:52:38;;;;;;;74.05;44.20;;;17.50;91.50;;;;;;4953441;28;20222;-89
2021/07/05 04:55:07;;;;;;;65.93;41.25;;;17.50;91.50;;;;;;4953521;28;20176;-88
2021/07/05 04:57:34;;;;;;;69.03;43.38;;;17.50;91.20;;;;;;4954625;28;20236;-88
2021/07/05 04:59:59;;;;;;;65.78;40.83;;;17.50;91.40;;;;;;4954593;28;20192;-88
2021/07/05 05:02:26;;;;;;;74.78;42.35;;;17.50;91.60;;;;;;4955114;28;20231;-88
2021/07/05 05:04:52;;;;;;;68.00;39.58;;;17.50;91.80;;;;;;4953344;28;20188;-88
2021/07/05 05:07:18;;;;;;;64.03;40.10;;;17.50;91.90;;;;;;4952035;28;20179;-88
2021/07/05 05:09:44;;;;;;;62.80;41.00;;;17.50;91.90;;;;;;4953542;28;20252;-88
2021/07/05 05:12:10;;;;;;;64.82;40.97;;;17.50;92.00;;;;;;4954701;28;20175;-88
2021/07/05 05:14:36;;;;;;;59.50;40.40;;;17.50;91.90;;;;;;4954426;28;20257;-88
2021/07/05 05:17:03;;;;;;;58.45;39.90;;;17.50;92.10;;;;;;4953230;28;20184;-88
2021/07/05 05:19:29;;;;;;;56.25;37.45;;;17.50;92.00;;;;;;4954422;28;20665;-88
2021/07/05 05:21:55;;;;;;;66.72;39.15;;;17.50;91.90;;;;;;4953179;28;20176;-88
2021/07/05 05:24:20;;;;;;;58.38;36.78;;;17.40;92.00;;;;;;4954256;28;20176;-88
2021/07/05 05:26:46;;;;;;;52.67;34.97;;;17.40;91.90;;;;;;4954494;28;20191;-88
2021/07/05 05:29:11;;;;;;;46.13;33.00;;;17.40;92.00;;;;;;4953544;29;20290;-88
2021/07/05 05:31:37;;;;;;;40.33;29.42;;;17.30;91.70;;;;;;4953011;28;20542;-88
2021/07/05 05:34:03;;;;;;;40.97;28.95;;;17.30;91.70;;;;;;4954243;28;20767;-88
2021/07/05 05:36:29;;;;;;;41.35;27.50;;;17.30;91.30;;;;;;4954116;28;20172;-88
2021/07/05 05:38:55;;;;;;;34.03;25.85;;;17.20;91.20;;;;;;4953295;29;20202;-88
2021/07/05 05:41:21;;;;;;;32.28;24.88;;;17.20;91.10;;;;;;4954050;28;20525;-88
2021/07/05 05:43:46;;;;;;;29.02;24.00;;;17.20;91.10;;;;;;4952822;29;20719;-88
2021/07/05 05:46:15;;;;;;;38.00;25.90;;;17.20;90.90;;;;;;4952775;29;20187;-88
2021/07/05 05:48:49;;;;;;;35.78;26.65;;;17.30;91.10;;;;;;4952711;29;20744;-88
2021/07/05 05:51:15;;;;;;;34.50;24.95;;;17.30;91.10;;;;;;4953257;29;20618;-88
2021/07/05 05:53:40;;;;;;;34.80;24.70;;;17.20;91.00;;;;;;4953975;28;20283;-88
2021/07/05 05:56:06;;;;;;;26.38;22.80;;;17.20;91.10;;;;;;4953778;28;20177;-88
2021/07/05 05:58:36;;;;;;;30.00;22.35;;;17.20;91.10;;;;;;4952836;28;20199;-88
2021/07/05 06:01:01;;;;;;;27.63;21.90;;;17.20;91.10;;;;;;4953746;28;20228;-88
2021/07/05 06:03:27;;;;;;;27.08;22.05;;;17.20;91.20;;;;;;4952532;28;20655;-88
2021/07/05 06:05:53;;;;;;;25.52;22.75;;;17.10;91.30;;;;;;4952473;28;20202;-89
2021/07/05 06:08:18;;;;;;;28.67;22.63;;;17.20;91.30;;;;;;4952286;28;20226;-88
2021/07/05 06:10:44;;;;;;;36.67;25.02;;;17.20;91.40;;;;;;4953547;28;20186;-88
2021/07/05 06:13:09;;;;;;;38.30;27.02;;;17.10;91.20;;;;;;4952289;28;20207;-88
2021/07/05 06:15:35;;;;;;;31.05;23.45;;;17.00;90.80;;;;;;4952319;29;20264;-88
2021/07/05 06:18:01;;;;;;;27.92;22.25;;;16.90;90.40;;;;;;4952103;28;20598;-88
2021/07/05 06:20:28;;;;;;;28.13;21.00;;;17.00;90.50;;;;;;4952043;29;20219;-88
2021/07/05 06:22:56;;;;;;;24.85;20.42;;;17.00;90.30;;;;;;4952287;29;20550;-88
2021/07/05 06:25:25;;;;;;;24.95;21.15;;;17.00;90.20;;;;;;4953400;28;20206;-88
2021/07/05 06:27:51;;;;;;;26.73;21.65;;;17.00;90.20;;;;;;4952130;28;20179;-88
2021/07/05 06:30:18;;;;;;;28.13;21.67;;;17.00;90.50;;;;;;4953561;28;20195;-88
2021/07/05 06:32:44;;;;;;;32.35;24.40;;;17.00;90.50;;;;;;4953521;28;20738;-88
2021/07/05 06:35:11;;;;;;;34.63;25.70;;;17.00;90.20;;;;;;4953289;28;20175;-88
2021/07/05 06:37:38;;;;;;;32.17;24.30;;;17.00;90.40;;;;;;4953143;28;20176;-87
2021/07/05 06:40:05;;;;;;;29.15;24.08;;;17.00;90.40;;;;;;4953117;28;20223;-88
2021/07/05 06:42:31;;;;;;;33.15;25.35;;;17.00;90.50;;;;;;4951885;29;20184;-87
2021/07/05 06:44:57;;;;;;;33.40;25.67;;;17.10;90.30;;;;;;4953097;28;20190;-88
2021/07/05 06:47:22;;;;;;;33.03;24.55;;;17.10;90.40;;;;;;4952978;28;20254;-87
2021/07/05 06:49:48;;;;;;;37.05;25.45;;;17.20;90.40;;;;;;4952959;28;20191;-87
2021/07/05 06:52:14;;;;;;;35.13;25.27;;;17.20;90.50;;;;;;4952944;28;20724;-87
2021/07/05 06:54:40;;;;;;;32.85;25.27;;;17.40;90.70;;;;;;4951716;28;20720;-87
2021/07/05 06:57:06;;;;;;;28.67;25.10;;;17.40;90.20;;;;;;4951645;28;20176;-87
2021/07/05 06:59:34;;;;;;;28.98;23.77;;;17.50;90.00;;;;;;4952766;28;20702;-88
2021/07/05 07:01:59;;;;;;;24.80;20.05;;;17.60;89.80;;;;;;4951664;28;20175;-87
2021/07/05 07:04:25;;;;;;;23.90;19.15;;;17.60;88.90;;;;;;4952770;28;20515;-87
2021/07/05 07:06:50;;;;;;;21.50;19.02;;;17.60;88.90;;;;;;4952756;28;20651;-87
2021/07/05 07:09:18;;;;;;;24.85;18.42;;;17.70;89.20;;;;;;4951497;29;20202;-87
2021/07/05 07:11:44;;;;;;;22.65;18.33;;;17.70;88.80;;;;;;4951544;28;20176;-87
2021/07/05 07:14:11;;;;;;;23.35;18.75;;;17.70;88.30;;;;;;4951420;28;20209;-87
2021/07/05 07:16:43;;;;;;;25.17;18.35;;;17.60;88.30;;;;;;4952616;28;20167;-88
2021/07/05 07:19:18;;;;;;;28.50;18.88;;;17.70;88.30;;;;;;4952472;28;20640;-87
2021/07/05 07:21:49;;;;;;;23.55;18.40;;;17.80;88.20;;;;;;4952604;28;20155;-87
2021/07/05 07:24:16;;;;;;;22.67;17.98;;;17.80;87.60;;;;;;4951409;29;20270;-87
2021/07/05 07:26:42;;;;;;;24.92;17.33;;;18.00;87.40;;;;;;4952860;28;20255;-87
2021/07/05 07:29:08;;;;;;;23.58;18.25;;;17.90;85.10;;;;;;4950731;28;20203;-87
2021/07/05 07:31:34;;;;;;;20.33;16.85;;;17.90;86.00;;;;;;4951999;28;20230;-87
2021/07/05 07:34:00;;;;;;;15.27;13.68;;;18.00;85.50;;;;;;4951248;28;20203;-87
2021/07/05 07:36:26;;;;;;;18.40;14.75;;;18.00;85.40;;;;;;4951554;28;20220;-87
2021/07/05 07:38:56;;;;;;;20.10;15.15;;;18.10;85.30;;;;;;4952368;28;20560;-87
2021/07/05 07:41:23;;;;;;;19.63;15.63;;;18.00;85.50;;;;;;4951106;28;20183;-87
2021/07/05 07:43:49;;;;;;;16.52;14.38;;;17.90;86.20;;;;;;4951521;28;20666;-87
2021/07/05 07:46:16;;;;;;;18.50;14.32;;;17.90;84.20;;;;;;4951079;28;20237;-87
2021/07/05 07:48:41;;;;;;;13.77;12.32;;;18.00;84.80;;;;;;4950943;28;20206;-88
2021/07/05 07:51:07;;;;;;;15.98;14.27;;;18.10;83.40;;;;;;4952501;28;20258;-87
2021/07/05 07:53:33;;;;;;;14.73;13.20;;;18.00;83.70;;;;;;4952112;28;20340;-87
2021/07/05 07:55:59;;;;;;;16.85;13.82;;;18.00;83.20;;;;;;4952210;28;20254;-87
2021/07/05 07:58:26;;;;;;;18.02;15.15;;;18.20;83.90;;;;;;4950892;29;20195;-87
2021/07/05 08:00:52;;;;;;;17.48;14.65;;;18.30;84.00;;;;;;4952364;28;20266;-88
2021/07/05 08:03:18;;;;;;;15.70;12.52;;;18.20;82.90;;;;;;4950854;28;20655;-87
2021/07/05 08:05:43;;;;;;;14.48;13.07;;;18.10;81.90;;;;;;4952082;28;20180;-87
2021/07/05 08:08:09;;;;;;;14.88;13.38;;;18.20;82.90;;;;;;4952025;28;20698;-87
2021/07/05 08:10:35;;;;;;;15.25;13.18;;;18.40;82.40;;;;;;4951676;28;20679;-87
2021/07/05 08:13:04;;;;;;;18.67;13.38;;;18.30;82.30;;;;;;4951967;28;20203;-87
2021/07/05 08:15:30;;;;;;;16.00;12.48;;;18.30;82.70;;;;;;4951013;29;20598;-87
2021/07/05 08:17:56;;;;;;;15.18;13.57;;;18.30;82.60;;;;;;4951835;28;20171;-87
2021/07/05 08:20:22;;;;;;;15.98;14.27;;;18.40;82.60;;;;;;4951770;28;20212;-87
2021/07/05 08:22:50;;;;;;;15.30;13.80;;;18.50;82.20;;;;;;4952197;28;20199;-87
2021/07/05 08:25:16;;;;;;;16.30;12.82;;;18.50;82.70;;;;;;4950649;29;20234;-87
2021/07/05 08:27:41;;;;;;;14.77;12.00;;;18.70;82.40;;;;;;4950663;28;20187;-87
2021/07/05 08:30:08;;;;;;;19.85;11.52;;;18.80;82.60;;;;;;4950504;29;20200;-87
2021/07/05 08:32:35;;;;;;;13.05;11.60;;;18.70;82.00;;;;;;4951676;28;20202;-87
2021/07/05 08:35:01;;;;;;;14.23;12.68;;;18.60;81.30;;;;;;4950520;28;20202;-87
2021/07/05 08:37:27;;;;;;;16.67;12.23;;;18.60;82.90;;;;;;4950553;28;20271;-87
2021/07/05 08:39:53;;;;;;;12.48;11.23;;;18.60;82.30;;;;;;4951551;28;20187;-87
2021/07/05 08:42:22;;;;;;;13.40;11.05;;;18.70;81.10;;;;;;4954115;28;20753;-87
2021/07/05 08:44:48;;;;;;;14.30;10.70;;;18.70;80.70;;;;;;4953653;28;20183;-87
2021/07/05 08:47:15;;;;;;;12.63;11.20;;;19.00;82.30;;;;;;4954843;28;20265;-87
2021/07/05 08:49:41;;;;;;;15.93;12.10;;;19.00;81.50;;;;;;4953500;28;20679;-87
2021/07/05 08:52:07;;;;;;;13.07;11.75;;;19.10;81.40;;;;;;4953723;28;20193;-87
2021/07/05 08:54:32;;;;;;;14.63;12.20;;;19.10;80.00;;;;;;4953501;28;20270;-87
2021/07/05 08:56:58;;;;;;;14.80;12.05;;;19.00;81.70;;;;;;4953480;29;20659;-87
2021/07/05 08:59:23;;;;;;;14.88;12.40;;;19.00;81.90;;;;;;4953388;28;20546;-86
2021/07/05 09:01:49;;;;;;;15.75;12.75;;;19.00;81.60;;;;;;4954656;28;20171;-85
2021/07/05 09:04:15;;;;;;;14.85;12.07;;;19.10;81.00;;;;;;4954532;28;20187;-87
2021/07/05 09:07:02;;;;;;;14.15;12.75;;;19.20;81.30;;;;;;4954551;28;20659;-87
2021/07/05 09:09:28;;;;;;;13.90;12.45;;;19.30;79.80;;;;;;4953885;29;20229;-87
2021/07/05 09:12:01;;;;;;;14.02;12.60;;;19.60;80.30;;;;;;4953206;28;20218;-87
2021/07/05 09:14:26;;;;;;;15.10;12.30;;;19.60;79.60;;;;;;4953325;29;20182;-87
2021/07/05 09:16:53;;;;;;;16.95;13.35;;;19.70;80.70;;;;;;4953481;28;20175;-87
2021/07/05 09:19:27;;;;;;;15.38;12.20;;;19.70;78.40;;;;;;4954024;28;20257;-87
2021/07/05 09:22:04;;;;;;;14.65;11.32;;;19.70;79.50;;;;;;4954280;28;20682;-87
2021/07/05 09:24:42;;;;;;;14.10;12.60;;;19.90;79.50;;;;;;4954574;28;20171;-87
2021/07/05 09:27:21;;;;;;;14.82;13.43;;;20.00;78.50;;;;;;4953193;29;20163;-87
2021/07/05 09:29:48;;;;;;;21.23;16.38;;;19.80;77.50;;;;;;4954462;28;20195;-87
2021/07/05 09:32:26;;;;;;;17.05;15.23;;;19.60;78.50;;;;;;4952913;28;20183;-87
2021/07/05 09:34:52;;;;;;;19.88;17.85;;;19.50;78.80;;;;;;4954155;28;20160;-87
2021/07/05 09:37:31;;;;;;;21.15;18.95;;;19.30;79.40;;;;;;4954133;28;20167;-87
2021/07/05 09:40:03;;;;;;;21.90;17.48;;;19.40;79.90;;;;;;4952779;28;20643;-87
2021/07/05 09:42:54;;;;;;;20.05;18.00;;;19.50;79.10;;;;;;4952778;28;20271;-87
2021/07/05 09:45:23;;;;;;;22.90;17.42;;;19.40;78.20;;;;;;4956537;28;20344;-87
2021/07/05 09:48:16;;;;;;;20.33;17.88;;;19.20;78.10;;;;;;4954102;28;20176;-87
2021/07/05 09:50:44;;;;;;;18.65;16.63;;;19.30;78.40;;;;;;4954191;28;20171;-87
2021/07/05 09:53:29;;;;;;;18.15;16.17;;;19.20;78.50;;;;;;4952891;28;20202;-86
2021/07/05 09:55:59;;;;;;;19.13;16.00;;;19.20;78.50;;;;;;4953837;28;20172;-87
2021/07/05 09:58:32;;;;;;;18.02;16.13;;;19.30;78.10;;;;;;4954007;28;20210;-87
2021/07/05 10:00:59;;;;;;;20.88;17.83;;;19.30;76.90;;;;;;4953715;28;20168;-86
2021/07/05 10:03:36;;;;;;;19.65;17.77;;;19.60;78.00;;;;;;4953689;28;20229;-86
2021/07/05 10:06:19;;;;;;;21.42;19.13;;;19.60;76.70;;;;;;4953650;28;20160;-86
2021/07/05 10:08:46;;;;;;;23.70;18.50;;;19.60;77.30;;;;;;4953803;28;20195;-85
2021/07/05 10:11:13;;;;;;;19.73;17.83;;;19.50;77.80;;;;;;4953472;28;20263;-86
2021/07/05 10:13:38;;;;;;;17.77;16.08;;;19.70;77.70;;;;;;4953488;28;20679;-86
2021/07/05 10:16:09;;;;;;;15.50;14.00;;;19.70;77.50;;;;;;4952199;28;20183;-86
2021/07/05 10:18:36;;;;;;;16.35;14.65;;;19.80;77.80;;;;;;4953439;28;20203;-86
2021/07/05 10:21:02;;;;;;;16.40;14.75;;;19.70;75.90;;;;;;4952121;28;20179;-86
2021/07/05 10:23:28;;;;;;;18.75;16.77;;;19.60;75.60;;;;;;4953320;28;20577;-85
2021/07/05 10:25:54;;;;;;;21.48;15.55;;;19.70;76.00;;;;;;4953326;28;20596;-85
2021/07/05 10:28:20;;;;;;;18.02;16.02;;;19.90;76.70;;;;;;4953115;28;20176;-85
2021/07/05 10:30:51;;;;;;;17.40;15.63;;;20.20;75.40;;;;;;4953177;28;20178;-86
2021/07/05 10:33:17;;;;;;;17.05;15.40;;;20.60;76.00;;;;;;4951941;29;20253;-86
2021/07/05 10:35:51;;;;;;;20.48;14.90;;;20.80;74.70;;;;;;4953123;28;20175;-85
2021/07/05 10:38:24;;;;;;;16.63;14.85;;;21.10;74.60;;;;;;4953045;28;20576;-85
2021/07/05 10:40:52;;;;;;;15.00;13.43;;;21.00;72.00;;;;;;4953099;28;20176;-88
2021/07/05 10:43:20;;;;;;;16.02;13.65;;;20.80;72.00;;;;;;4951865;29;20179;-87
2021/07/05 10:45:51;;;;;;;14.63;13.23;;;20.90;73.70;;;;;;4953051;28;20211;-87
2021/07/05 10:48:40;;;;;;;18.77;13.05;;;20.80;74.00;;;;;;4951786;28;20560;-87
2021/07/05 10:51:06;;;;;;;13.13;11.93;;;20.70;73.80;;;;;;4953107;28;20214;-87
2021/07/05 10:53:32;;;;;;;14.93;12.23;;;20.80;72.70;;;;;;4952998;28;20687;-87
2021/07/05 10:56:01;;;;;;;13.45;12.23;;;20.80;73.90;;;;;;4952105;28;20210;-87
2021/07/05 10:58:30;;;;;;;12.52;11.43;;;20.80;73.10;;;;;;4951608;28;20547;-87
2021/07/05 11:01:01;;;;;;;12.95;11.75;;;20.80;72.60;;;;;;4952971;28;20152;-87
2021/07/05 11:03:40;;;;;;;11.75;10.70;;;21.00;72.70;;;;;;4951704;28;20172;-87
2021/07/05 11:06:29;;;;;;;8.98;8.18;;;20.90;72.40;;;;;;4952793;28;20175;-87
2021/07/05 11:08:55;;;;;;;10.25;8.82;;;21.10;72.10;;;;;;4956597;28;20211;-87
2021/07/05 11:11:26;;;;;;;8.35;7.53;;;21.10;71.30;;;;;;4952759;28;20280;-87
2021/07/05 11:14:13;;;;;;;8.05;7.20;;;21.10;71.60;;;;;;4952839;28;20742;-87
2021/07/05 11:17:14;;;;;;;9.40;8.50;;;21.00;71.00;;;;;;4952698;28;20176;-87
2021/07/05 11:19:49;;;;;;;10.75;9.18;;;20.70;71.80;;;;;;4952564;28;20213;-86
2021/07/05 11:22:36;;;;;;;9.50;8.50;;;21.00;71.10;;;;;;4951344;28;20218;-87
2021/07/05 11:25:20;;;;;;;9.40;6.47;;;20.90;71.30;;;;;;4967461;28;20169;-88
2021/07/05 11:27:49;;;;;;;8.13;7.43;;;21.20;70.00;;;;;;4952930;28;20221;-89
2021/07/05 11:30:17;;;;;;;7.63;6.88;;;21.10;69.90;;;;;;4952831;28;20611;-89
2021/07/05 11:32:49;;;;;;;9.93;7.65;;;21.00;70.00;;;;;;4967875;28;20294;-89
2021/07/05 11:35:45;;;;;;;8.10;7.35;;;20.90;69.30;;;;;;4967492;28;20174;-89
2021/07/05 11:38:24;;;;;;;14.13;8.43;;;20.90;70.30;;;;;;4952984;28;20191;-89
2021/07/05 11:40:59;;;;;;;8.70;7.50;;;20.80;71.10;;;;;;4951240;28;20229;-88
2021/07/05 11:43:48;;;;;;;8.50;7.72;;;20.90;72.50;;;;;;4967372;28;20167;-89
2021/07/05 11:46:36;;;;;;;9.63;8.65;;;21.00;70.80;;;;;;4952507;28;20239;-88
2021/07/05 11:49:14;;;;;;;9.40;8.60;;;20.90;71.80;;;;;;4956197;28;20207;-87
2021/07/05 11:51:49;;;;;;;11.65;9.02;;;20.60;71.90;;;;;;4952868;28;20558;-88
2021/07/05 11:54:18;;;;;;;16.33;12.88;;;20.70;71.90;;;;;;4952226;28;20187;-89
2021/07/05 11:56:50;;;;;;;10.57;9.30;;;20.80;71.30;;;;;;4951022;28;20682;-89
2021/07/05 11:59:24;;;;;;;9.57;8.60;;;20.60;71.60;;;;;;4967054;28;20801;-89
2021/07/05 12:01:57;;;;;;;10.32;9.30;;;20.70;73.50;;;;;;4952158;28;20186;-88
2021/07/05 12:04:32;;;;;;;10.50;9.52;;;20.60;73.10;;;;;;4952140;28;20728;-88
2021/07/05 12:06:58;;;;;;;12.27;11.18;;;20.70;73.70;;;;;;4967016;28;20179;-89
2021/07/05 12:09:29;;;;;;;13.07;11.77;;;20.50;75.80;;;;;;4950812;29;20290;-89
2021/07/05 12:11:56;;;;;;;12.45;11.25;;;20.50;75.40;;;;;;4950894;29;20658;-88
2021/07/05 12:14:27;;;;;;;16.40;13.80;;;20.30;76.10;;;;;;4950960;28;20207;-88
2021/07/05 12:16:59;;;;;;;15.73;14.23;;;20.20;77.90;;;;;;4952974;28;20175;-89
2021/07/05 12:19:28;;;;;;;15.80;14.05;;;20.20;77.60;;;;;;4954366;29;20207;-88
2021/07/05 12:21:57;;;;;;;18.45;15.88;;;19.90;77.50;;;;;;4955219;28;20702;-88
2021/07/05 12:24:28;;;;;;;19.15;17.25;;;19.70;79.80;;;;;;4955235;28;20190;-88
2021/07/05 12:27:03;;;;;;;18.10;16.45;;;19.80;80.30;;;;;;4954039;29;20608;-89
2021/07/05 12:29:39;;;;;;;17.35;15.75;;;20.00;80.50;;;;;;4955130;28;20187;-89
2021/07/05 12:32:13;;;;;;;14.07;12.73;;;19.90;79.60;;;;;;4954322;29;20254;-89
2021/07/05 12:35:14;;;;;;;5.78;5.22;;;19.80;80.20;;;;;;4955437;28;20171;-89
2021/07/05 12:37:44;;;;;;;4.57;3.65;;;19.00;78.90;;;;;;4970042;28;20163;-90